createdAt,value
2023-01-23T00:01:51.212Z,3.70
2023-01-23T00:04:18.849Z,3.42
2023-01-23T00:06:46.425Z,3.50
2023-01-23T00:09:13.937Z,3.78
2023-01-23T00:11:43.004Z,3.53
2023-01-23T00:14:10.584Z,3.55
2023-01-23T00:16:38.083Z,3.20
2023-01-23T00:19:05.582Z,3.42
2023-01-23T00:21:33.630Z,3.72
2023-01-23T00:24:01.291Z,3.15
2023-01-23T00:26:30.591Z,3.47
2023-01-23T00:29:00.053Z,3.50
2023-01-23T00:33:58.477Z,3.60
2023-01-23T00:36:29.570Z,3.53
2023-01-23T00:38:57.097Z,3.25
2023-01-23T00:41:24.677Z,3.30
2023-01-23T00:43:53.165Z,3.30
2023-01-23T00:46:23.287Z,3.70
2023-01-23T00:48:51.168Z,3.40
2023-01-23T00:51:19.566Z,3.70
2023-01-23T00:53:47.565Z,3.22
2023-01-23T00:56:15.114Z,3.33
2023-01-23T00:58:45.059Z,3.58
2023-01-23T01:01:14.192Z,4.53
2023-01-23T01:03:43.886Z,4.30
2023-01-23T01:08:39.691Z,3.28
2023-01-23T01:11:08.064Z,3.95
2023-01-23T01:13:35.962Z,3.53
2023-01-23T01:16:04.106Z,3.22
2023-01-23T01:18:31.741Z,3.28
2023-01-23T01:21:01.228Z,3.42
2023-01-23T01:23:29.362Z,3.25
2023-01-23T01:26:00.279Z,3.17
2023-01-23T01:28:28.857Z,3.22
2023-01-23T01:30:56.613Z,3.38
2023-01-23T01:33:24.556Z,2.92
2023-01-23T01:35:52.664Z,3.70
2023-01-23T01:38:21.659Z,3.50
2023-01-23T01:40:49.574Z,3.47
2023-01-23T01:43:21.149Z,3.45
2023-01-23T01:46:07.792Z,3.80
2023-01-23T01:48:40.357Z,2.97
2023-01-23T01:51:14.755Z,3.33
2023-01-23T01:53:46.248Z,3.70
2023-01-23T01:56:15.021Z,3.28
2023-01-23T01:58:46.044Z,3.30
2023-01-23T02:01:13.857Z,4.18
2023-01-23T02:03:43.698Z,4.03
2023-01-23T02:06:11.882Z,4.15
2023-01-23T02:08:47.030Z,3.97
2023-01-23T02:11:15.000Z,3.85
2023-01-23T02:13:43.479Z,3.50
2023-01-23T02:16:14.339Z,3.90
2023-01-23T02:18:44.852Z,4.38
2023-01-23T02:21:14.263Z,4.55
2023-01-23T02:23:55.356Z,4.30
2023-01-23T02:26:31.244Z,3.70
2023-01-23T02:28:59.787Z,3.83
2023-01-23T02:31:32.907Z,3.92
2023-01-23T02:34:01.344Z,3.83
2023-01-23T02:36:32.551Z,3.65
2023-01-23T02:39:06.862Z,3.72
2023-01-23T02:41:39.285Z,3.60
2023-01-23T02:44:13.443Z,3.38
2023-01-23T02:46:44.878Z,4.35
2023-01-23T02:49:12.799Z,4.43
2023-01-23T02:51:40.442Z,4.20
2023-01-23T02:54:08.928Z,4.43
2023-01-23T02:56:38.147Z,4.03
2023-01-23T02:59:05.985Z,3.95
2023-01-23T03:01:37.931Z,4.60
2023-01-23T03:04:06.749Z,4.43
2023-01-23T03:06:36.704Z,4.37
2023-01-23T03:09:07.821Z,3.85
2023-01-23T03:11:38.723Z,3.65
2023-01-23T03:14:09.070Z,4.90
2023-01-23T03:16:38.443Z,3.92
2023-01-23T03:19:08.026Z,4.93
2023-01-23T03:21:38.211Z,4.28
2023-01-23T03:24:07.162Z,4.80
2023-01-23T03:26:34.794Z,4.07
2023-01-23T03:29:05.896Z,4.35
2023-01-23T03:31:33.955Z,4.40
2023-01-23T03:34:01.488Z,5.13
2023-01-23T03:36:30.968Z,4.10
2023-01-23T03:38:59.051Z,4.68
2023-01-23T03:41:28.113Z,4.72
2023-01-23T03:44:00.716Z,4.15
2023-01-23T03:46:30.332Z,5.50
2023-01-23T03:48:57.905Z,4.45
2023-01-23T03:51:25.611Z,4.63
2023-01-23T03:53:54.061Z,5.00
2023-01-23T03:56:21.827Z,4.50
2023-01-23T03:58:50.494Z,4.80
2023-01-23T04:01:21.742Z,4.40
2023-01-23T04:03:51.583Z,5.65
2023-01-23T04:06:19.345Z,5.07
2023-01-23T04:11:18.002Z,6.05
2023-01-23T04:13:46.509Z,6.20
2023-01-23T04:16:14.369Z,5.70
2023-01-23T04:18:42.754Z,7.68
2023-01-23T04:21:12.399Z,7.90
2023-01-23T04:23:40.155Z,12.10
2023-01-23T04:26:07.953Z,11.32
2023-01-23T04:28:36.929Z,9.10
2023-01-23T04:31:05.417Z,11.00
2023-01-23T04:33:34.874Z,11.30
2023-01-23T04:36:06.310Z,12.02
2023-01-23T04:38:36.641Z,14.18
2023-01-23T04:41:24.549Z,14.43
2023-01-23T04:43:59.677Z,15.00
2023-01-23T04:46:27.451Z,14.30
2023-01-23T04:48:59.813Z,13.93
2023-01-23T04:51:28.304Z,13.52
2023-01-23T04:53:57.751Z,13.50
2023-01-23T04:56:25.294Z,14.20
2023-01-23T04:58:53.175Z,14.25
2023-01-23T05:01:21.138Z,13.77
2023-01-23T05:03:49.018Z,13.73
2023-01-23T05:06:16.673Z,14.88
2023-01-23T05:08:45.328Z,13.02
2023-01-23T05:11:37.395Z,13.32
2023-01-23T05:14:06.302Z,13.68
2023-01-23T05:16:35.100Z,13.77
2023-01-23T05:19:20.173Z,14.27
2023-01-23T05:21:47.991Z,13.43
2023-01-23T05:24:18.639Z,13.13
2023-01-23T05:26:48.434Z,14.25
2023-01-23T05:29:17.182Z,13.80
2023-01-23T05:31:53.652Z,13.60
2023-01-23T05:34:42.256Z,13.43
2023-01-23T05:37:23.005Z,12.45
2023-01-23T05:39:52.582Z,12.98
2023-01-23T05:42:23.153Z,12.85
2023-01-23T05:45:12.107Z,13.60
2023-01-23T05:47:42.893Z,12.40
2023-01-23T05:50:15.833Z,12.85
2023-01-23T05:52:44.656Z,12.80
2023-01-23T05:55:12.830Z,12.85
2023-01-23T05:57:43.181Z,12.60
2023-01-23T06:00:20.493Z,13.68
2023-01-23T06:03:10.988Z,11.90
2023-01-23T06:06:08.401Z,13.32
2023-01-23T06:08:36.038Z,12.63
2023-01-23T06:11:04.511Z,13.10
2023-01-23T06:13:33.546Z,12.93
2023-01-23T06:16:01.131Z,14.02
2023-01-23T06:18:28.963Z,13.65
2023-01-23T06:21:01.205Z,13.88
2023-01-23T06:23:29.791Z,13.85
2023-01-23T06:26:01.206Z,14.15
2023-01-23T06:28:29.788Z,13.52
2023-01-23T06:31:03.677Z,13.35
2023-01-23T06:33:39.141Z,13.00
2023-01-23T06:36:10.670Z,14.63
2023-01-23T06:38:39.088Z,13.85
2023-01-23T06:41:09.950Z,15.20
2023-01-23T06:43:40.531Z,14.00
2023-01-23T06:46:16.738Z,14.15
2023-01-23T06:48:45.359Z,13.40
2023-01-23T06:51:12.964Z,13.75
2023-01-23T06:53:44.220Z,13.82
2023-01-23T06:56:13.031Z,11.98
2023-01-23T06:58:43.428Z,12.32
2023-01-23T07:01:20.161Z,13.90
2023-01-23T07:04:20.474Z,12.50
2023-01-23T07:06:51.020Z,12.27
2023-01-23T07:09:20.197Z,13.60
2023-01-23T07:11:59.558Z,13.05
2023-01-23T07:14:28.911Z,12.25
2023-01-23T07:16:58.701Z,12.27
2023-01-23T07:19:26.533Z,10.43
2023-01-23T07:21:55.137Z,11.80
2023-01-23T07:24:22.636Z,11.00
2023-01-23T07:26:50.554Z,11.13
2023-01-23T07:29:18.020Z,9.02
2023-01-23T07:31:45.492Z,10.07
2023-01-23T07:34:14.555Z,10.05
2023-01-23T07:36:42.102Z,9.50
2023-01-23T07:39:10.256Z,9.68
2023-01-23T07:41:39.056Z,10.20
2023-01-23T07:44:08.860Z,10.38
2023-01-23T07:46:36.421Z,10.00
2023-01-23T07:49:04.029Z,8.45
2023-01-23T07:51:34.148Z,9.38
2023-01-23T07:54:01.619Z,10.50
2023-01-23T07:56:29.083Z,28.15
2023-01-23T07:58:57.530Z,12.75
2023-01-23T08:01:25.228Z,11.43
2023-01-23T08:03:53.625Z,10.23
2023-01-23T08:06:21.345Z,10.18
2023-01-23T08:08:50.667Z,9.48
2023-01-23T08:11:18.307Z,11.82
2023-01-23T08:13:49.668Z,8.40
2023-01-23T08:16:17.583Z,9.02
2023-01-23T08:18:45.220Z,10.23
2023-01-23T08:21:12.849Z,9.10
2023-01-23T08:23:40.297Z,10.65
2023-01-23T08:26:11.564Z,10.05
2023-01-23T08:28:39.124Z,10.88
2023-01-23T08:31:08.772Z,9.57
2023-01-23T08:36:05.636Z,10.68
2023-01-23T08:38:33.403Z,10.50
2023-01-23T08:41:02.778Z,10.75
2023-01-23T08:46:00.060Z,9.83
2023-01-23T08:48:28.310Z,9.32
2023-01-23T08:51:04.998Z,8.82
2023-01-23T08:53:33.370Z,9.50
2023-01-23T08:56:01.626Z,8.70
2023-01-23T08:58:29.179Z,8.30
2023-01-23T09:00:58.218Z,8.25
2023-01-23T09:03:26.795Z,8.77
2023-01-23T09:05:54.411Z,10.13
2023-01-23T09:08:21.884Z,10.65
2023-01-23T09:10:49.358Z,9.88
2023-01-23T09:13:17.065Z,9.82
2023-01-23T09:15:44.538Z,10.63
2023-01-23T09:18:13.533Z,11.73
2023-01-23T09:20:41.181Z,10.30
2023-01-23T09:23:08.688Z,10.90
2023-01-23T09:25:37.703Z,11.40
2023-01-23T09:28:05.472Z,10.85
2023-01-23T09:30:33.022Z,9.85
2023-01-23T09:33:00.524Z,9.88
2023-01-23T09:35:30.071Z,10.77
2023-01-23T09:37:58.880Z,10.63
2023-01-23T09:40:28.977Z,10.10
2023-01-23T09:42:58.735Z,10.50
2023-01-23T09:45:28.080Z,11.15
2023-01-23T09:48:02.516Z,11.18
2023-01-23T09:50:36.478Z,10.88
2023-01-23T09:53:11.808Z,11.60
2023-01-23T09:55:44.748Z,11.20
2023-01-23T09:58:22.535Z,11.73
2023-01-23T10:00:51.735Z,10.27
2023-01-23T10:03:20.292Z,10.93
2023-01-23T10:06:12.132Z,10.40
2023-01-23T10:08:50.385Z,12.15
2023-01-23T10:11:24.274Z,11.57
2023-01-23T10:14:17.420Z,13.15
2023-01-23T10:17:00.697Z,11.23
2023-01-23T10:19:48.135Z,11.27
2023-01-23T10:22:28.244Z,10.25
2023-01-23T10:24:57.302Z,10.48
2023-01-23T10:27:32.830Z,10.55
2023-01-23T10:30:05.225Z,11.35
2023-01-23T10:32:46.533Z,11.98
2023-01-23T10:35:18.431Z,10.85
2023-01-23T10:37:53.186Z,10.45
2023-01-23T10:40:23.581Z,11.57
2023-01-23T10:42:51.051Z,10.77
2023-01-23T10:45:22.529Z,10.82
2023-01-23T10:47:55.104Z,11.68
2023-01-23T10:50:37.194Z,11.55
2023-01-23T10:53:19.311Z,11.80
2023-01-23T10:55:48.387Z,11.60
2023-01-23T10:58:29.475Z,11.20
2023-01-23T11:00:57.131Z,12.48
2023-01-23T11:03:30.070Z,12.23
2023-01-23T11:06:02.090Z,12.70
2023-01-23T11:08:33.936Z,12.35
2023-01-23T11:11:21.373Z,10.88
2023-01-23T11:13:50.811Z,11.18
2023-01-23T11:16:21.414Z,11.55
2023-01-23T11:18:54.235Z,11.38
2023-01-23T11:21:23.892Z,9.88
2023-01-23T11:24:08.402Z,10.70
2023-01-23T11:26:37.714Z,10.30
2023-01-23T11:29:21.413Z,10.57
2023-01-23T11:31:52.909Z,10.38
2023-01-23T11:34:24.398Z,11.02
2023-01-23T11:37:00.121Z,9.48
2023-01-23T11:39:40.937Z,9.63
2023-01-23T11:42:11.354Z,9.35
2023-01-23T11:44:45.962Z,9.85
2023-01-23T11:47:30.903Z,8.95
2023-01-23T11:50:12.190Z,9.80
2023-01-23T11:52:49.436Z,9.00
2023-01-23T11:55:52.887Z,8.57
2023-01-23T11:58:49.480Z,8.80
2023-01-23T12:01:23.399Z,9.35
2023-01-23T12:04:31.203Z,9.25
2023-01-23T12:07:14.082Z,8.45
2023-01-23T12:09:52.550Z,9.35
2023-01-23T12:12:32.815Z,9.55
2023-01-23T12:15:09.776Z,9.65
2023-01-23T12:17:46.124Z,9.88
2023-01-23T12:20:31.103Z,9.75
2023-01-23T12:23:21.779Z,9.90
2023-01-23T12:26:00.693Z,10.10
2023-01-23T12:28:50.731Z,8.70
2023-01-23T12:31:40.032Z,9.23
2023-01-23T12:34:28.107Z,8.68
2023-01-23T12:37:30.789Z,8.90
2023-01-23T12:40:10.075Z,8.65
2023-01-23T12:42:46.397Z,8.18
2023-01-23T12:45:22.465Z,10.00
2023-01-23T12:47:59.730Z,9.05
2023-01-23T12:50:39.074Z,8.45
2023-01-23T12:53:10.599Z,10.00
2023-01-23T12:55:43.504Z,9.35
2023-01-23T12:58:16.436Z,8.52
2023-01-23T13:01:04.886Z,8.73
2023-01-23T13:04:07.549Z,8.80
2023-01-23T13:06:56.299Z,8.32
2023-01-23T13:09:32.492Z,8.80
2023-01-23T13:12:08.253Z,7.95
2023-01-23T13:15:03.203Z,8.45
2023-01-23T13:17:37.548Z,7.72
2023-01-23T13:20:21.641Z,7.43
2023-01-23T13:22:49.287Z,7.82
2023-01-23T13:25:19.698Z,7.55
2023-01-23T13:27:50.193Z,7.88
2023-01-23T13:30:43.463Z,7.30
2023-01-23T13:33:51.574Z,7.53
2023-01-23T13:36:42.319Z,7.25
2023-01-23T13:39:28.437Z,7.10
2023-01-23T13:42:44.900Z,7.07
2023-01-23T13:45:30.916Z,8.75
2023-01-23T14:21:23.677Z,7.20
2023-01-23T14:23:53.328Z,6.65
2023-01-23T14:26:26.463Z,6.63
2023-01-23T14:28:56.266Z,6.90
2023-01-23T14:36:32.752Z,7.00
2023-01-23T14:39:01.852Z,6.78
2023-01-23T14:44:04.632Z,6.40
2023-01-23T14:46:36.732Z,6.25
2023-01-23T14:49:07.875Z,6.43
2023-01-23T14:51:36.634Z,6.20
2023-01-23T14:54:10.241Z,6.00
2023-01-23T14:56:40.179Z,6.10
2023-01-23T14:59:24.147Z,6.45
2023-01-23T15:01:56.031Z,6.13
2023-01-23T15:04:25.899Z,6.07
2023-01-23T15:06:55.785Z,6.53
2023-01-23T15:09:29.337Z,6.90
2023-01-23T15:12:06.900Z,6.85
2023-01-23T15:14:37.940Z,6.03
2023-01-23T15:17:12.176Z,6.97
2023-01-23T15:19:41.605Z,6.28
2023-01-23T15:22:18.706Z,6.25
2023-01-23T15:24:47.754Z,6.80
2023-01-23T15:27:31.446Z,6.28
2023-01-23T15:30:31.633Z,5.97
2023-01-23T15:33:00.949Z,6.35
2023-01-23T15:37:58.217Z,6.22
2023-01-23T15:40:27.988Z,5.95
2023-01-23T15:43:07.181Z,5.45
2023-01-23T15:45:35.153Z,6.07
2023-01-23T15:48:02.592Z,6.25
2023-01-23T15:50:30.723Z,5.40
2023-01-23T15:52:58.696Z,6.30
2023-01-23T15:55:28.705Z,6.65
2023-01-23T15:57:56.742Z,5.78
2023-01-23T16:00:28.764Z,5.68
2023-01-23T16:02:59.150Z,5.22
2023-01-23T16:05:30.675Z,5.38
2023-01-23T16:08:00.577Z,5.43
2023-01-23T16:10:30.071Z,5.13
2023-01-23T16:12:58.676Z,5.35
2023-01-23T16:15:29.103Z,5.82
2023-01-23T16:17:57.124Z,6.35
2023-01-23T16:20:27.872Z,7.07
2023-01-23T16:23:01.848Z,6.00
2023-01-23T16:25:44.178Z,6.13
2023-01-23T16:30:42.058Z,6.15
2023-01-23T16:33:09.893Z,5.15
2023-01-23T16:35:37.701Z,5.40
2023-01-23T16:38:06.812Z,5.55
2023-01-23T16:40:34.711Z,5.60
2023-01-23T16:43:03.475Z,5.50
2023-01-23T16:45:32.431Z,5.47
2023-01-23T16:48:01.292Z,5.60
2023-01-23T16:50:34.708Z,5.75
2023-01-23T16:53:06.142Z,5.72
2023-01-23T16:55:36.991Z,5.57
2023-01-23T16:58:06.516Z,5.82
2023-01-23T17:00:35.715Z,5.25
2023-01-23T17:03:09.236Z,5.25
2023-01-23T17:05:37.402Z,5.00
2023-01-23T17:08:17.129Z,5.55
2023-01-23T17:15:42.463Z,6.15
2023-01-23T17:18:22.864Z,5.93
2023-01-23T17:20:51.325Z,5.40
2023-01-23T17:23:18.948Z,5.20
2023-01-23T17:25:59.154Z,5.60
2023-01-23T17:28:27.159Z,6.30
2023-01-23T17:30:56.236Z,5.50
2023-01-23T17:33:29.809Z,5.70
2023-01-23T17:35:57.492Z,5.60
2023-01-23T17:38:27.895Z,5.20
2023-01-23T17:40:56.176Z,5.68
2023-01-23T17:43:23.966Z,5.85
2023-01-23T17:45:52.522Z,5.70
2023-01-23T17:48:28.878Z,5.43
2023-01-23T17:50:57.363Z,5.68
2023-01-23T17:53:25.453Z,5.80
2023-01-23T17:55:53.943Z,4.60
2023-01-23T17:58:22.187Z,5.75
2023-01-23T18:00:51.506Z,5.32
2023-01-23T18:03:21.783Z,4.57
2023-01-23T18:05:51.047Z,4.70
2023-01-23T18:08:21.058Z,5.30
2023-01-23T18:10:51.843Z,5.05
2023-01-23T18:13:28.037Z,5.00
2023-01-23T18:16:05.717Z,5.03
2023-01-23T18:18:36.112Z,5.53
2023-01-23T18:21:08.026Z,5.90
2023-01-23T18:23:37.478Z,6.03
2023-01-23T18:26:17.839Z,5.95
2023-01-23T18:28:56.287Z,5.80
2023-01-23T18:31:35.419Z,4.82
2023-01-23T18:34:14.907Z,5.07
2023-01-23T18:36:58.178Z,5.65
2023-01-23T18:39:36.209Z,5.80
2023-01-23T18:42:15.218Z,5.10
2023-01-23T18:44:48.608Z,5.65
2023-01-23T18:47:16.925Z,5.55
2023-01-23T18:49:45.289Z,5.18
2023-01-23T18:52:19.379Z,5.20
2023-01-23T18:54:56.520Z,5.20
2023-01-23T18:57:47.050Z,5.28
2023-01-23T19:00:22.542Z,5.55
2023-01-23T19:02:52.413Z,5.32
2023-01-23T19:05:28.340Z,5.25
2023-01-23T19:07:58.086Z,4.72
2023-01-23T19:10:30.699Z,5.40
2023-01-23T19:13:12.190Z,4.88
2023-01-23T19:15:48.397Z,4.85
2023-01-23T19:18:40.612Z,5.00
2023-01-23T19:21:14.682Z,5.05
2023-01-23T19:23:47.412Z,5.43
2023-01-23T19:26:16.373Z,4.90
2023-01-23T19:28:44.267Z,5.38
2023-01-23T19:31:20.765Z,5.18
2023-01-23T19:33:48.740Z,5.00
2023-01-23T19:36:17.295Z,4.90
2023-01-23T19:38:46.500Z,5.15
2023-01-23T19:41:19.618Z,4.97
2023-01-23T19:43:51.715Z,4.80
2023-01-23T19:46:20.608Z,4.78
2023-01-23T19:48:48.229Z,4.82
2023-01-23T19:51:18.545Z,4.32
2023-01-23T19:53:47.598Z,4.82
2023-01-23T19:56:16.874Z,5.25
2023-01-23T19:58:44.705Z,4.78
2023-01-23T20:01:22.331Z,4.72
2023-01-23T20:03:50.352Z,5.07
2023-01-23T20:06:17.987Z,4.38
2023-01-23T20:08:47.618Z,4.50
2023-01-23T20:13:42.479Z,4.57
2023-01-23T20:16:14.459Z,4.72
2023-01-23T20:18:42.503Z,4.70
2023-01-23T20:21:10.279Z,4.45
2023-01-23T20:23:37.756Z,4.85
2023-01-23T20:26:07.227Z,4.82
2023-01-23T20:28:35.961Z,4.45
2023-01-23T20:31:08.579Z,4.83
2023-01-23T20:33:36.471Z,5.45
2023-01-23T20:36:05.351Z,5.03
2023-01-23T20:38:33.316Z,4.32
2023-01-23T20:41:04.812Z,4.05
2023-01-23T20:43:34.084Z,5.15
2023-01-23T20:46:04.615Z,5.00
2023-01-23T20:48:34.028Z,4.60
2023-01-23T20:51:02.067Z,4.82
2023-01-23T20:53:29.580Z,4.63
2023-01-23T20:55:58.485Z,5.50
2023-01-23T20:58:26.990Z,4.32
2023-01-23T21:00:56.023Z,5.65
2023-01-23T21:03:23.748Z,5.10
2023-01-23T21:05:51.217Z,4.30
2023-01-23T21:08:19.198Z,4.50
2023-01-23T21:10:47.387Z,4.93
2023-01-23T21:13:14.939Z,5.10
2023-01-23T21:15:42.650Z,4.13
2023-01-23T21:18:12.264Z,4.45
2023-01-23T21:20:40.168Z,4.25
2023-01-23T21:23:07.703Z,4.40
2023-01-23T21:25:36.010Z,4.25
2023-01-23T21:28:03.471Z,4.28
2023-01-23T21:30:30.996Z,4.43
2023-01-23T21:32:58.541Z,3.80
2023-01-23T21:35:27.504Z,4.60
2023-01-23T21:37:54.995Z,4.13
2023-01-23T21:40:22.609Z,4.18
2023-01-23T21:42:50.169Z,5.05
2023-01-23T21:45:18.571Z,4.50
2023-01-23T21:47:46.731Z,4.20
2023-01-23T21:50:14.590Z,4.05
2023-01-23T21:52:43.553Z,3.72
2023-01-23T21:55:11.007Z,3.90
2023-01-23T21:57:39.219Z,3.80
2023-01-23T22:00:08.111Z,4.10
2023-01-23T22:02:41.387Z,3.80
2023-01-23T22:05:09.401Z,4.07
2023-01-23T22:07:36.896Z,3.78
2023-01-23T22:10:07.324Z,3.85
2023-01-23T22:12:34.838Z,3.83
2023-01-23T22:15:03.112Z,3.75
2023-01-23T22:17:30.601Z,3.13
2023-01-23T22:19:58.119Z,3.90
2023-01-23T22:22:26.359Z,4.18
2023-01-23T22:24:53.971Z,3.17
2023-01-23T22:27:23.396Z,3.55
2023-01-23T22:29:50.840Z,3.58
2023-01-23T22:32:18.432Z,3.97
2023-01-23T22:34:46.087Z,3.42
2023-01-23T22:37:13.697Z,4.03
2023-01-23T22:39:41.195Z,3.65
2023-01-23T22:42:08.694Z,3.70
2023-01-23T22:44:38.399Z,3.45
2023-01-23T22:49:33.604Z,3.53
2023-01-23T22:52:01.542Z,4.18
2023-01-23T22:54:29.247Z,3.30
2023-01-23T22:56:57.199Z,3.50
2023-01-23T22:59:25.381Z,3.60
2023-01-23T23:01:54.292Z,3.88
2023-01-23T23:04:21.787Z,3.33
2023-01-23T23:06:49.246Z,3.67
2023-01-23T23:09:16.694Z,3.60
2023-01-23T23:11:44.409Z,3.70
2023-01-23T23:14:11.868Z,3.72
2023-01-23T23:16:39.346Z,4.22
2023-01-23T23:19:09.660Z,3.88
2023-01-23T23:21:38.196Z,4.63
2023-01-23T23:24:07.607Z,4.13
2023-01-23T23:26:35.734Z,4.13
2023-01-23T23:29:03.914Z,4.22
2023-01-23T23:31:31.894Z,4.13
2023-01-23T23:33:59.771Z,4.32
2023-01-23T23:36:28.671Z,4.00
2023-01-23T23:38:56.130Z,4.80
2023-01-23T23:41:23.624Z,4.55
2023-01-23T23:43:51.221Z,3.75
2023-01-23T23:46:19.561Z,4.07
2023-01-23T23:48:47.016Z,3.80
2023-01-23T23:51:16.309Z,4.05
2023-01-23T23:53:46.240Z,4.28
2023-01-23T23:56:19.823Z,3.95
2023-01-23T23:58:47.382Z,3.88
